Time;durP1;ratioP1;P1;durP2;ratioP2;P2;SDS_P1;SDS_P2;PMS_P1;PMS_P2;Temp;Humidity;BMP_temperature;BMP_pressure;BME280_temperature;BME280_humidity;BME280_pressure;Samples;Min_cycle;Max_cycle;Signal;HPM_P1;HPM_P2
2022/04/29 00:00:16;;;;;;;;;;;18.10;99.90;;;;;;5114209;28;19908;-38
2022/04/29 00:02:42;;;;;;;;;;;18.10;99.90;;;;;;5114038;28;19973;-38
2022/04/29 00:05:11;;;;;;;;;;;18.10;99.90;;;;;;5114148;28;19919;-37
2022/04/29 00:07:38;;;;;;;;;;;18.10;99.90;;;;;;5114015;28;20278;-37
2022/04/29 00:10:07;;;;;;;;;;;18.10;99.90;;;;;;5114427;28;19957;-37
2022/04/29 00:12:33;;;;;;;;;;;18.10;99.90;;;;;;5114311;28;19908;-37
2022/04/29 00:14:59;;;;;;;;;;;18.10;99.90;;;;;;5114055;28;20376;-37
2022/04/29 00:17:24;;;;;;;;;;;18.10;99.90;;;;;;5116447;28;19915;-37
2022/04/29 00:19:50;;;;;;;;;;;18.10;99.90;;;;;;5117965;28;19908;-38
2022/04/29 00:22:16;;;;;;;;;;;18.10;99.90;;;;;;5118077;28;19998;-37
2022/04/29 00:24:41;;;;;;;;;;;18.10;99.90;;;;;;5118180;28;20243;-37
2022/04/29 00:27:07;;;;;;;;;;;18.00;99.90;;;;;;5118396;28;19907;-36
2022/04/29 00:29:33;;;;;;;;;;;18.10;99.90;;;;;;5117778;28;19960;-36
2022/04/29 00:31:58;;;;;;;;;;;18.00;99.90;;;;;;5117711;28;19920;-36
2022/04/29 00:34:24;;;;;;;;;;;18.10;99.90;;;;;;5117672;28;19998;-37
2022/04/29 00:36:50;;;;;;;;;;;18.00;99.90;;;;;;5117588;28;19911;-36
2022/04/29 00:39:15;;;;;;;;;;;18.00;99.90;;;;;;5117858;28;19914;-37
2022/04/29 00:41:44;;;;;;;;;;;18.00;99.90;;;;;;5117539;28;19912;-37
2022/04/29 00:44:10;;;;;;;;;;;18.00;99.90;;;;;;5117734;28;20282;-37
2022/04/29 00:46:39;;;;;;;;;;;18.00;99.90;;;;;;5117465;28;19912;-37
2022/04/29 00:49:06;;;;;;;;;;;18.00;99.90;;;;;;5117464;28;19915;-37
2022/04/29 00:51:31;;;;;;;;;;;18.00;99.90;;;;;;5117280;28;19959;-37
2022/04/29 00:53:57;;;;;;;;;;;18.00;99.90;;;;;;5117337;28;19908;-37
2022/04/29 00:56:24;;;;;;;;;;;18.00;99.90;;;;;;5117583;28;19908;-37
2022/04/29 00:59:11;;;;;;;;;;;18.00;99.90;;;;;;5117856;28;19911;-36
2022/04/29 01:01:37;;;;;;;;;;;18.00;99.90;;;;;;5117179;28;19912;-37
2022/04/29 01:04:03;;;;;;;;;;;18.00;99.90;;;;;;5117349;28;19919;-37
2022/04/29 01:06:29;;;;;;;;;;;18.00;99.90;;;;;;5117264;28;20366;-37
2022/04/29 01:08:55;;;;;;;;;;;18.00;99.90;;;;;;5116995;28;19934;-37
2022/04/29 01:11:22;;;;;;;;;;;18.00;99.90;;;;;;5116959;28;19953;-37
2022/04/29 01:13:49;;;;;;;;;;;18.00;99.90;;;;;;5117377;28;19994;-37
2022/04/29 01:16:15;;;;;;;;;;;17.90;99.90;;;;;;5098897;28;19912;-38
2022/04/29 01:18:41;;;;;;;;;;;17.90;99.90;;;;;;5117118;28;20416;-37
2022/04/29 01:21:06;;;;;;;;;;;18.00;99.90;;;;;;5116712;28;19908;-37
2022/04/29 01:23:33;;;;;;;;;;;18.00;99.90;;;;;;5116995;28;19912;-37
2022/04/29 01:25:58;;;;;;;;;;;18.00;99.90;;;;;;5116656;28;19914;-37
2022/04/29 01:28:24;;;;;;;;;;;18.00;99.90;;;;;;5116145;28;19911;-37
2022/04/29 01:30:51;;;;;;;;;;;18.00;99.90;;;;;;5116843;28;19989;-37
2022/04/29 01:33:18;;;;;;;;;;;18.00;99.90;;;;;;5116467;28;20354;-37
2022/04/29 01:35:43;;;;;;;;;;;18.00;99.90;;;;;;5116729;28;19960;-37
2022/04/29 01:38:09;;;;;;;;;;;17.90;99.90;;;;;;5116581;28;19907;-37
2022/04/29 01:40:34;;;;;;;;;;;17.90;99.90;;;;;;5116673;28;20020;-37
2022/04/29 01:43:00;;;;;;;;;;;17.90;99.90;;;;;;5116539;28;20363;-37
2022/04/29 01:45:26;;;;;;;;;;;18.00;99.90;;;;;;5116625;28;19915;-37
2022/04/29 01:47:51;;;;;;;;;;;18.00;99.90;;;;;;5116156;28;19962;-37
2022/04/29 01:50:17;;;;;;;;;;;18.00;99.90;;;;;;5116507;28;19908;-38
2022/04/29 01:52:42;;;;;;;;;;;18.00;99.90;;;;;;5116454;28;19915;-37
2022/04/29 01:55:08;;;;;;;;;;;18.00;99.90;;;;;;5116420;28;20278;-37
2022/04/29 01:57:34;;;;;;;;;;;18.00;99.90;;;;;;5116631;28;19912;-37
2022/04/29 02:00:00;;;;;;;;;;;18.00;99.90;;;;;;5115860;28;19908;-37
2022/04/29 02:02:26;;;;;;;;;;;17.90;99.90;;;;;;5115826;28;19919;-37
2022/04/29 02:04:51;;;;;;;;;;;18.00;99.90;;;;;;5116187;28;19947;-37
2022/04/29 02:07:17;;;;;;;;;;;18.00;99.90;;;;;;5116196;28;20004;-38
2022/04/29 02:09:42;;;;;;;;;;;17.90;99.90;;;;;;5116140;28;20045;-37
2022/04/29 02:12:09;;;;;;;;;;;18.00;99.90;;;;;;5116069;28;19916;-37
2022/04/29 02:14:36;;;;;;;;;;;17.90;99.90;;;;;;5115898;28;19907;-37
2022/04/29 02:17:03;;;;;;;;;;;17.90;99.90;;;;;;5115689;28;20010;-38
2022/04/29 02:19:29;;;;;;;;;;;18.00;99.90;;;;;;5115912;28;19914;-37
2022/04/29 02:21:56;;;;;;;;;;;18.00;99.90;;;;;;5115733;28;20354;-37
2022/04/29 02:24:21;;;;;;;;;;;17.90;99.90;;;;;;5115843;28;19911;-37
2022/04/29 02:26:47;;;;;;;;;;;18.00;99.90;;;;;;5097603;28;20358;-37
2022/04/29 02:29:12;;;;;;;;;;;17.90;99.90;;;;;;5115725;28;19914;-37
2022/04/29 02:31:38;;;;;;;;;;;18.00;99.90;;;;;;5115597;28;19915;-37
2022/04/29 02:34:03;;;;;;;;;;;17.90;99.90;;;;;;5115308;28;19919;-37
2022/04/29 02:36:29;;;;;;;;;;;17.90;99.90;;;;;;5115597;28;19908;-37
2022/04/29 02:38:54;;;;;;;;;;;17.90;99.90;;;;;;5114855;28;20041;-37
2022/04/29 02:41:20;;;;;;;;;;;18.00;99.90;;;;;;5115386;28;20363;-37
2022/04/29 02:43:45;;;;;;;;;;;17.90;99.90;;;;;;5115385;28;19965;-37
2022/04/29 02:46:11;;;;;;;;;;;17.90;99.90;;;;;;5115413;28;20330;-37
2022/04/29 02:48:37;;;;;;;;;;;17.90;99.90;;;;;;5115099;28;20422;-37
2022/04/29 02:51:05;;;;;;;;;;;17.90;99.90;;;;;;5115184;28;19908;-37
2022/04/29 02:53:31;;;;;;;;;;;17.90;99.90;;;;;;5114932;28;19930;-37
2022/04/29 02:55:57;;;;;;;;;;;17.90;99.90;;;;;;5115254;28;20381;-37
2022/04/29 02:58:22;;;;;;;;;;;17.90;99.90;;;;;;5114823;28;19907;-37
2022/04/29 03:00:48;;;;;;;;;;;17.90;99.90;;;;;;5115073;28;19908;-37
2022/04/29 03:03:13;;;;;;;;;;;17.90;99.90;;;;;;5115053;28;19915;-37
2022/04/29 03:05:39;;;;;;;;;;;17.90;99.90;;;;;;5114747;28;19962;-37
2022/04/29 03:08:05;;;;;;;;;;;17.90;99.90;;;;;;5114649;28;19962;-37
2022/04/29 03:10:30;;;;;;;;;;;17.90;99.90;;;;;;5114618;28;19908;-37
2022/04/29 03:12:56;;;;;;;;;;;17.90;99.90;;;;;;5114769;28;20359;-37
2022/04/29 03:15:25;;;;;;;;;;;17.90;99.90;;;;;;5114841;28;19907;-36
2022/04/29 03:20:36;;;;;;;;;;;17.90;99.90;;;;;;5114911;28;20358;-38
2022/04/29 03:23:02;;;;;;;;;;;17.90;99.90;;;;;;5114434;28;20014;-38
2022/04/29 03:25:28;;;;;;;;;;;17.90;99.90;;;;;;5114700;28;20431;-38
2022/04/29 03:27:53;;;;;;;;;;;17.90;99.90;;;;;;5114424;28;19912;-39
2022/04/29 03:30:19;;;;;;;;;;;17.90;99.90;;;;;;5114324;28;19914;-38
2022/04/29 03:32:51;;;;;;;;;;;17.90;99.90;;;;;;5114354;28;20338;-36
2022/04/29 03:35:17;;;;;;;;;;;17.90;99.90;;;;;;5114449;28;20374;-37
2022/04/29 03:37:42;;;;;;;;;;;17.90;99.90;;;;;;5096252;28;19908;-37
2022/04/29 03:40:08;;;;;;;;;;;17.80;99.90;;;;;;5114519;28;20360;-37
2022/04/29 03:42:34;;;;;;;;;;;17.90;99.90;;;;;;5114176;28;19915;-36
2022/04/29 03:44:59;;;;;;;;;;;17.90;99.90;;;;;;5114197;28;19912;-37
2022/04/29 03:47:25;;;;;;;;;;;18.00;99.90;;;;;;5114802;28;19908;-38
2022/04/29 03:49:51;;;;;;;;;;;17.90;99.90;;;;;;5114424;28;19908;-38
2022/04/29 03:52:16;;;;;;;;;;;17.90;99.90;;;;;;5118456;28;19908;-38
2022/04/29 03:54:42;;;;;;;;;;;17.90;99.90;;;;;;5118605;28;19908;-39
2022/04/29 03:57:08;;;;;;;;;;;17.90;99.90;;;;;;5118203;28;20361;-38
2022/04/29 03:59:33;;;;;;;;;;;17.90;99.90;;;;;;5118510;28;19912;-38
2022/04/29 04:01:59;;;;;;;;;;;17.80;99.90;;;;;;5118462;28;20371;-38
2022/04/29 04:04:25;;;;;;;;;;;17.90;99.90;;;;;;5118267;28;19943;-38
2022/04/29 04:06:50;;;;;;;;;;;17.90;99.90;;;;;;5118541;28;19917;-38
2022/04/29 04:09:16;;;;;;;;;;;17.90;99.90;;;;;;5118484;28;20343;-38
2022/04/29 04:11:42;;;;;;;;;;;17.80;99.90;;;;;;5118364;28;19968;-38
2022/04/29 04:14:08;;;;;;;;;;;17.80;99.90;;;;;;5118155;28;19947;-37
2022/04/29 04:16:34;;;;;;;;;;;17.80;99.90;;;;;;5117973;28;19994;-37
2022/04/29 04:18:59;;;;;;;;;;;17.80;99.90;;;;;;5117790;28;20312;-37
2022/04/29 04:21:25;;;;;;;;;;;17.80;99.90;;;;;;5117719;28;20353;-37
2022/04/29 04:23:50;;;;;;;;;;;17.80;99.90;;;;;;5117852;28;19912;-37
2022/04/29 04:26:16;;;;;;;;;;;17.80;99.90;;;;;;5117813;28;20334;-37
2022/04/29 04:28:41;;;;;;;;;;;17.80;99.90;;;;;;5117725;28;19908;-37
2022/04/29 04:31:07;;;;;;;;;;;17.80;99.90;;;;;;5117637;28;20346;-37
2022/04/29 04:33:32;;;;;;;;;;;17.80;99.90;;;;;;5117981;28;19926;-37
2022/04/29 04:35:59;;;;;;;;;;;17.80;99.90;;;;;;5117487;28;19908;-37
2022/04/29 04:38:26;;;;;;;;;;;17.80;99.90;;;;;;5117659;28;19911;-37
2022/04/29 04:40:53;;;;;;;;;;;17.80;99.90;;;;;;5117403;28;19914;-38
2022/04/29 04:43:20;;;;;;;;;;;17.80;99.90;;;;;;5117590;28;19919;-37
2022/04/29 04:45:46;;;;;;;;;;;17.80;99.90;;;;;;5099233;28;19916;-37
2022/04/29 04:48:12;;;;;;;;;;;17.90;99.90;;;;;;5117508;28;20406;-37
2022/04/29 04:50:37;;;;;;;;;;;17.80;99.90;;;;;;5117270;28;19914;-37
2022/04/29 04:53:03;;;;;;;;;;;17.90;99.90;;;;;;5117440;28;20265;-37
2022/04/29 04:55:28;;;;;;;;;;;17.90;99.90;;;;;;5116950;28;20351;-37
2022/04/29 04:57:54;;;;;;;;;;;17.90;99.90;;;;;;5117054;28;19918;-37
2022/04/29 05:00:19;;;;;;;;;;;17.90;99.90;;;;;;5117061;28;19908;-37
2022/04/29 05:02:45;;;;;;;;;;;17.90;99.90;;;;;;5116374;28;20004;-37
2022/04/29 05:05:10;;;;;;;;;;;17.90;99.90;;;;;;5116717;28;19912;-37
2022/04/29 05:07:38;;;;;;;;;;;17.90;99.90;;;;;;5116774;28;19914;-37
2022/04/29 05:10:05;;;;;;;;;;;17.90;99.90;;;;;;5116860;28;19915;-37
2022/04/29 05:12:31;;;;;;;;;;;17.90;99.90;;;;;;5116664;28;20378;-37
2022/04/29 05:14:56;;;;;;;;;;;17.90;99.90;;;;;;5116620;28;19915;-37
2022/04/29 05:17:22;;;;;;;;;;;17.80;99.90;;;;;;5116369;28;19908;-37
2022/04/29 05:19:47;;;;;;;;;;;17.90;99.90;;;;;;5098842;28;19914;-37
2022/04/29 05:22:13;;;;;;;;;;;17.80;99.90;;;;;;5115996;28;20273;-37
2022/04/29 05:24:38;;;;;;;;;;;17.80;99.90;;;;;;5116486;28;19977;-39
2022/04/29 05:27:04;;;;;;;;;;;17.80;99.90;;;;;;5116274;28;20364;-38
2022/04/29 05:29:29;;;;;;;;;;;17.90;99.90;;;;;;5116468;28;20002;-38
2022/04/29 05:31:55;;;;;;;;;;;17.80;99.90;;;;;;5116595;28;19919;-38
2022/04/29 05:34:21;;;;;;;;;;;17.90;99.90;;;;;;5116520;28;19912;-38
2022/04/29 05:36:46;;;;;;;;;;;17.80;99.90;;;;;;5116516;28;19962;-38
2022/04/29 05:42:14;;;;;;;;;;;17.90;99.90;;;;;;5116074;28;19935;-38
2022/04/29 05:44:40;;;;;;;;;;;17.90;99.90;;;;;;5116556;28;19912;-38
2022/04/29 05:47:05;;;;;;;;;;;17.90;99.90;;;;;;5116452;28;19915;-38
2022/04/29 05:49:31;;;;;;;;;;;17.90;99.90;;;;;;5115862;28;19908;-38
2022/04/29 05:51:58;;;;;;;;;;;17.90;99.90;;;;;;5115885;28;19908;-37
2022/04/29 05:54:24;;;;;;;;;;;17.90;99.90;;;;;;5115808;28;19959;-38
2022/04/29 05:56:49;;;;;;;;;;;17.90;99.90;;;;;;5115681;28;19931;-38
2022/04/29 05:59:15;;;;;;;;;;;17.80;99.90;;;;;;5116098;28;20272;-38
2022/04/29 06:01:41;;;;;;;;;;;17.90;99.90;;;;;;5115792;28;19919;-38
2022/04/29 06:04:06;;;;;;;;;;;17.90;99.90;;;;;;5115844;28;19912;-38
2022/04/29 06:06:33;;;;;;;;;;;17.90;99.90;;;;;;5115840;28;19919;-38
2022/04/29 06:08:59;;;;;;;;;;;17.90;99.90;;;;;;5115448;28;19908;-39
2022/04/29 06:11:24;;;;;;;;;;;18.00;99.90;;;;;;5115633;28;19915;-38
2022/04/29 06:13:50;;;;;;;;;;;17.80;99.90;;;;;;5114447;28;20188;-36
2022/04/29 06:16:17;;;;;;;;;;;17.70;99.90;;;;;;5115008;28;19961;-38
2022/04/29 06:18:43;;;;;;;;;;;17.50;99.90;;;;;;5115382;28;19908;-36
2022/04/29 06:21:08;;;;;;;;;;;17.50;99.90;;;;;;5115054;28;19907;-35
2022/04/29 06:23:34;;;;;;;;;;;17.60;99.90;;;;;;5114647;28;19949;-36
2022/04/29 06:25:59;;;;;;;;;;;17.70;99.90;;;;;;5115226;28;19908;-37
2022/04/29 06:28:25;;;;;;;;;;;17.80;99.90;;;;;;5096543;28;20270;-36
2022/04/29 06:30:50;;;;;;;;;;;17.80;99.90;;;;;;5114979;28;19954;-36
2022/04/29 06:33:16;;;;;;;;;;;17.90;99.90;;;;;;5115232;28;19931;-36
2022/04/29 06:35:47;;;;;;;;;;;17.90;99.90;;;;;;5115103;28;19915;-37
2022/04/29 06:38:13;;;;;;;;;;;17.90;99.90;;;;;;5115272;28;19915;-36
2022/04/29 06:40:38;;;;;;;;;;;18.00;99.90;;;;;;5115029;28;20307;-36
2022/04/29 06:43:04;;;;;;;;;;;17.90;99.90;;;;;;5114782;28;19980;-36
2022/04/29 06:45:30;;;;;;;;;;;18.00;99.90;;;;;;5114637;28;19912;-36
2022/04/29 06:47:55;;;;;;;;;;;18.00;99.90;;;;;;5114451;28;19915;-36
2022/04/29 06:50:21;;;;;;;;;;;17.90;99.90;;;;;;5114562;28;19908;-36
2022/04/29 06:52:46;;;;;;;;;;;18.00;99.90;;;;;;5114577;28;20008;-37
2022/04/29 06:55:12;;;;;;;;;;;18.00;99.90;;;;;;5114361;28;20046;-37
2022/04/29 06:57:37;;;;;;;;;;;18.00;99.90;;;;;;5114330;28;19970;-37
2022/04/29 07:00:04;;;;;;;;;;;18.00;99.90;;;;;;5114284;28;19972;-38
2022/04/29 07:02:29;;;;;;;;;;;18.00;99.90;;;;;;5114173;28;19912;-37
2022/04/29 07:04:55;;;;;;;;;;;18.10;99.90;;;;;;5114492;28;19912;-37
2022/04/29 07:07:20;;;;;;;;;;;18.10;99.90;;;;;;5114499;28;19933;-37
2022/04/29 07:09:46;;;;;;;;;;;18.10;99.90;;;;;;5114634;28;20322;-36
2022/04/29 07:12:11;;;;;;;;;;;18.20;99.90;;;;;;5114722;28;19915;-36
2022/04/29 07:14:37;;;;;;;;;;;18.50;99.90;;;;;;5114519;28;19914;-36
2022/04/29 07:17:03;;;;;;;;;;;18.70;99.90;;;;;;5114350;28;19908;-36
2022/04/29 07:19:28;;;;;;;;;;;19.00;99.90;;;;;;5114523;28;19908;-36
2022/04/29 07:21:54;;;;;;;;;;;19.40;99.90;;;;;;5114613;28;19916;-36
2022/04/29 07:24:19;;;;;;;;;;;19.80;99.90;;;;;;5114302;28;19998;-36
2022/04/29 07:26:45;;;;;;;;;;;20.10;99.90;;;;;;5113710;28;20274;-37
2022/04/29 07:29:11;;;;;;;;;;;20.30;99.90;;;;;;5114331;28;19908;-36
2022/04/29 07:31:36;;;;;;;;;;;20.40;99.90;;;;;;5114398;28;20346;-36
2022/04/29 07:34:02;;;;;;;;;;;20.40;99.90;;;;;;5114137;28;19908;-36
2022/04/29 07:41:55;;;;;;;;;;;20.40;99.90;;;;;;5114489;28;20384;-36
2022/04/29 07:44:21;;;;;;;;;;;20.30;99.90;;;;;;5113974;28;19912;-37
2022/04/29 07:46:47;;;;;;;;;;;20.20;99.90;;;;;;5113822;28;19974;-37
2022/04/29 07:49:13;;;;;;;;;;;20.20;99.90;;;;;;5114126;28;19944;-37
2022/04/29 07:51:39;;;;;;;;;;;20.00;99.90;;;;;;5113992;28;19915;-37
2022/04/29 07:54:05;;;;;;;;;;;20.10;99.90;;;;;;5114128;28;19974;-36
2022/04/29 07:56:30;;;;;;;;;;;19.90;99.90;;;;;;5114125;28;19935;-36
2022/04/29 07:58:57;;;;;;;;;;;19.90;99.90;;;;;;5095925;28;19954;-37
2022/04/29 08:01:23;;;;;;;;;;;19.80;99.90;;;;;;5129758;28;20006;-37
2022/04/29 08:03:49;;;;;;;;;;;19.70;99.90;;;;;;5113776;28;19973;-37
2022/04/29 08:06:14;;;;;;;;;;;19.70;99.90;;;;;;5114047;28;19977;-36
2022/04/29 08:08:40;;;;;;;;;;;19.60;99.90;;;;;;5114046;28;19908;-36
2022/04/29 08:11:06;;;;;;;;;;;19.60;99.90;;;;;;5114048;28;19907;-36
2022/04/29 08:13:32;;;;;;;;;;;19.40;99.90;;;;;;5114134;28;19908;-36
2022/04/29 08:15:59;;;;;;;;;;;19.30;99.90;;;;;;5113642;28;19907;-36
2022/04/29 08:18:25;;;;;;;;;;;19.30;99.90;;;;;;5113632;28;20021;-36
2022/04/29 08:20:50;;;;;;;;;;;19.30;99.90;;;;;;5113610;28;19990;-36
2022/04/29 08:23:16;;;;;;;;;;;19.20;99.90;;;;;;5113389;28;20015;-37
2022/04/29 08:25:41;;;;;;;;;;;19.20;99.90;;;;;;5113677;28;19991;-36
2022/04/29 08:28:07;;;;;;;;;;;19.40;99.90;;;;;;5113373;28;20006;-37
2022/04/29 08:30:32;;;;;;;;;;;19.60;99.90;;;;;;5113760;28;20018;-36
2022/04/29 08:32:59;;;;;;;;;;;19.80;99.90;;;;;;5113341;28;19920;-37
2022/04/29 08:35:25;;;;;;;;;;;19.90;99.90;;;;;;5113715;28;19941;-37
2022/04/29 08:37:51;;;;;;;;;;;20.00;99.90;;;;;;5114968;28;20366;-36
2022/04/29 08:40:16;;;;;;;;;;;19.90;99.90;;;;;;5117231;28;19908;-37
2022/04/29 08:42:42;;;;;;;;;;;19.90;99.90;;;;;;5117406;28;19911;-37
2022/04/29 08:45:12;;;;;;;;;;;19.80;99.90;;;;;;5117482;28;20371;-37
2022/04/29 08:47:39;;;;;;;;;;;19.60;99.90;;;;;;5117205;28;19908;-37
2022/04/29 08:50:05;;;;;;;;;;;19.60;99.90;;;;;;5117400;28;19912;-37
2022/04/29 08:52:31;;;;;;;;;;;19.50;99.90;;;;;;5117799;28;19930;-37
2022/04/29 09:00:26;;;;;;;;;;;19.70;99.90;;;;;;5116871;28;19966;-37
2022/04/29 09:02:52;;;;;;;;;;;19.60;99.90;;;;;;5116806;28;19947;-37
2022/04/29 09:05:17;;;;;;;;;;;19.70;99.90;;;;;;5117123;28;20350;-37
2022/04/29 09:07:53;;;;;;;;;;;19.70;99.90;;;;;;5116975;28;19908;-37
2022/04/29 09:10:19;;;;;;;;;;;19.70;99.90;;;;;;5098646;28;19912;-37
2022/04/29 09:12:45;;;;;;;;;;;19.60;99.90;;;;;;5117064;28;19908;-37
2022/04/29 09:15:14;;;;;;;;;;;19.70;99.90;;;;;;5116758;28;20285;-37
2022/04/29 09:17:46;;;;;;;;;;;19.60;99.90;;;;;;5116846;28;19915;-37
2022/04/29 09:20:13;;;;;;;;;;;19.60;99.90;;;;;;5116776;28;19914;-37
2022/04/29 09:22:41;;;;;;;;;;;19.60;99.90;;;;;;5116309;28;20362;-37
2022/04/29 09:25:07;;;;;;;;;;;19.60;99.90;;;;;;5116644;28;20011;-37
2022/04/29 09:27:52;;;;;;;;;;;19.60;99.90;;;;;;5116611;28;19908;-37
2022/04/29 09:30:18;;;;;;;;;;;19.60;99.90;;;;;;5116805;28;20389;-37
2022/04/29 09:32:48;;;;;;;;;;;19.70;99.90;;;;;;5116631;28;19924;-37
2022/04/29 09:35:13;;;;;;;;;;;19.60;99.90;;;;;;5116455;28;20389;-37
2022/04/29 09:39:26;;;;;;;;;;;19.60;99.90;;;;;;5116157;28;19908;-37
2022/04/29 09:40:37;;;;;;;;;;;19.50;99.90;;;;;;5116020;28;19911;-37
2022/04/29 09:43:03;;;;;;;;;;;19.50;99.90;;;;;;5116290;28;19912;-37
2022/04/29 09:45:28;;;;;;;;;;;19.50;99.90;;;;;;5115980;28;20381;-37
2022/04/29 09:47:55;;;;;;;;;;;19.50;99.90;;;;;;5115577;28;19918;-37
2022/04/29 09:50:20;;;;;;;;;;;19.40;99.90;;;;;;5116078;28;19912;-37
2022/04/29 09:52:46;;;;;;;;;;;19.30;99.90;;;;;;5115937;28;19936;-37
2022/04/29 09:55:12;;;;;;;;;;;19.30;99.90;;;;;;5116443;28;19931;-37
2022/04/29 09:57:52;;;;;;;;;;;19.20;99.90;;;;;;5115902;28;19960;-36
2022/04/29 10:00:18;;;;;;;;;;;19.20;99.90;;;;;;5116032;28;19908;-36
2022/04/29 10:02:43;;;;;;;;;;;19.30;99.90;;;;;;5115812;28;19918;-36
2022/04/29 10:05:09;;;;;;;;;;;19.30;99.90;;;;;;5115416;28;19912;-36
2022/04/29 10:07:35;;;;;;;;;;;19.40;99.90;;;;;;5115467;28;19908;-36
2022/04/29 10:10:02;;;;;;;;;;;19.40;99.90;;;;;;5116088;28;19915;-36
2022/04/29 10:12:29;;;;;;;;;;;19.40;99.90;;;;;;5115818;28;19908;-37
2022/04/29 10:14:59;;;;;;;;;;;19.60;99.90;;;;;;5114998;28;19998;-37
2022/04/29 10:23:12;;;;;;;;;;;19.70;99.90;;;;;;5108301;28;19977;-37
2022/04/29 10:25:45;;;;;;;;;;;19.70;99.90;;;;;;5115528;28;19953;-37
2022/04/29 10:28:15;;;;;;;;;;;19.70;99.90;;;;;;5115271;28;20002;-37
2022/04/29 10:30:41;;;;;;;;;;;19.70;99.90;;;;;;5115469;28;19908;-37
2022/04/29 10:33:08;;;;;;;;;;;19.70;99.90;;;;;;5115231;28;19973;-37
2022/04/29 10:35:40;;;;;;;;;;;19.70;99.90;;;;;;5115306;28;19911;-37
2022/04/29 10:38:17;;;;;;;;;;;19.70;99.90;;;;;;5114887;28;19947;-37
2022/04/29 10:40:44;;;;;;;;;;;19.70;99.90;;;;;;5115036;28;19961;-37
2022/04/29 10:43:10;;;;;;;;;;;19.80;99.90;;;;;;5114647;28;20002;-37
2022/04/29 10:45:56;;;;;;;;;;;19.80;99.90;;;;;;5114616;28;20284;-37
2022/04/29 10:48:37;;;;;;;;;;;19.80;99.90;;;;;;5114075;28;20006;-37
2022/04/29 10:51:09;;;;;;;;;;;19.80;99.90;;;;;;5114202;28;20359;-37
2022/04/29 10:53:37;;;;;;;;;;;19.80;99.90;;;;;;5114903;28;19908;-37
2022/04/29 10:56:21;;;;;;;;;;;19.80;99.90;;;;;;5114590;28;20354;-37
2022/04/29 10:58:47;;;;;;;;;;;19.70;99.90;;;;;;5114857;28;20008;-37
2022/04/29 11:01:25;;;;;;;;;;;19.70;99.90;;;;;;5113581;28;20235;-37
2022/04/29 11:03:50;;;;;;;;;;;19.60;99.90;;;;;;5114115;28;20366;-38
2022/04/29 11:06:16;;;;;;;;;;;19.60;99.90;;;;;;5114073;28;20017;-37
2022/04/29 11:08:43;;;;;;;;;;;19.60;99.90;;;;;;5114208;28;20018;-37
2022/04/29 11:11:09;;;;;;;;;;;19.60;99.90;;;;;;5114418;28;19907;-37
2022/04/29 11:13:36;;;;;;;;;;;19.80;99.90;;;;;;5114230;28;19915;-37
2022/04/29 11:16:08;;;;;;;;;;;19.80;99.90;;;;;;5114089;28;19998;-37
2022/04/29 11:18:34;;;;;;;;;;;19.80;99.90;;;;;;5114291;28;19918;-37
2022/04/29 11:24:40;;;;;;;;;;;19.80;99.60;;;;;;5114152;28;19908;-37
2022/04/29 11:26:41;;;;;;;;;;;19.70;99.20;;;;;;5114209;28;20281;-37
2022/04/29 11:29:09;;;;;;;;;;;19.80;99.90;;;;;;5114174;28;20344;-36
2022/04/29 11:31:35;;;;;;;;;;;19.70;99.90;;;;;;5113612;28;20279;-37
2022/04/29 11:34:04;;;;;;;;;;;19.70;99.90;;;;;;5113523;28;19934;-36
2022/04/29 11:36:29;;;;;;;;;;;19.80;99.90;;;;;;5113629;28;20004;-37
2022/04/29 11:38:55;;;;;;;;;;;19.70;99.70;;;;;;5113666;28;19920;-37
2022/04/29 11:41:21;;;;;;;;;;;19.60;99.80;;;;;;5113597;28;19967;-36
2022/04/29 11:43:48;;;;;;;;;;;19.60;99.30;;;;;;5113927;28;19915;-37
2022/04/29 11:46:14;;;;;;;;;;;19.50;99.00;;;;;;5113907;28;19908;-37
2022/04/29 11:48:49;;;;;;;;;;;19.50;98.90;;;;;;5114062;28;19907;-37
2022/04/29 11:51:14;;;;;;;;;;;19.40;98.10;;;;;;5113449;28;19918;-36
2022/04/29 11:54:12;;;;;;;;;;;19.30;98.50;;;;;;5113634;28;20006;-37
2022/04/29 11:56:39;;;;;;;;;;;19.40;98.60;;;;;;5090066;28;19960;-36
2022/04/29 11:59:06;;;;;;;;;;;19.30;98.40;;;;;;5114343;28;20332;-36
2022/04/29 12:01:32;;;;;;;;;;;19.30;98.40;;;;;;5113658;28;20349;-37
2022/04/29 12:03:58;;;;;;;;;;;19.40;98.30;;;;;;5113430;28;19912;-37
2022/04/29 12:06:23;;;;;;;;;;;19.50;98.40;;;;;;5113425;28;19908;-37
2022/04/29 12:08:49;;;;;;;;;;;19.60;98.10;;;;;;5113153;28;20000;-37
2022/04/29 12:11:22;;;;;;;;;;;19.70;98.10;;;;;;5113871;28;19923;-36
2022/04/29 12:13:47;;;;;;;;;;;19.80;98.70;;;;;;5117388;28;19912;-37
2022/04/29 12:16:13;;;;;;;;;;;19.90;98.60;;;;;;5117551;28;19916;-37
2022/04/29 12:18:43;;;;;;;;;;;19.80;98.60;;;;;;5117721;28;19907;-37
2022/04/29 12:21:09;;;;;;;;;;;19.80;98.20;;;;;;5117531;28;19954;-36
2022/04/29 12:23:35;;;;;;;;;;;19.80;98.40;;;;;;5117743;28;20256;-36
2022/04/29 12:26:01;;;;;;;;;;;19.80;98.50;;;;;;5117824;28;19919;-36
2022/04/29 12:28:28;;;;;;;;;;;19.80;98.50;;;;;;5117281;28;19922;-37
2022/04/29 12:36:31;;;;;;;;;;;19.70;98.50;;;;;;5117525;28;19915;-38
2022/04/29 12:39:04;;;;;;;;;;;19.60;98.80;;;;;;5117461;28;19908;-38
2022/04/29 12:41:32;;;;;;;;;;;19.70;98.70;;;;;;5099280;28;19910;-37
2022/04/29 12:47:22;;;;;;;;;;;19.60;98.30;;;;;;5113045;28;20018;-36
2022/04/29 12:49:48;;;;;;;;;;;19.50;98.30;;;;;;5117211;28;19930;-36
2022/04/29 12:52:14;;;;;;;;;;;19.40;98.10;;;;;;5117136;28;19908;-35
2022/04/29 12:54:39;;;;;;;;;;;19.50;98.60;;;;;;5116667;28;19938;-36
2022/04/29 12:57:05;;;;;;;;;;;19.50;98.70;;;;;;5116689;28;19961;-37
2022/04/29 12:59:31;;;;;;;;;;;19.40;98.60;;;;;;5116484;28;19995;-37
2022/04/29 13:02:05;;;;;;;;;;;19.50;98.30;;;;;;5116521;28;19962;-37
2022/04/29 13:04:30;;;;;;;;;;;19.60;97.90;;;;;;5116349;28;19911;-37
2022/04/29 13:06:56;;;;;;;;;;;19.80;98.00;;;;;;5116501;28;20430;-37
2022/04/29 13:09:22;;;;;;;;;;;19.90;97.80;;;;;;5116723;28;19907;-36
2022/04/29 13:11:48;;;;;;;;;;;19.90;97.80;;;;;;5116828;28;20243;-37
2022/04/29 13:14:16;;;;;;;;;;;20.00;97.70;;;;;;5116560;28;19958;-37
2022/04/29 13:16:43;;;;;;;;;;;20.00;97.40;;;;;;5117003;28;19943;-36
2022/04/29 13:19:09;;;;;;;;;;;20.00;97.50;;;;;;5116448;28;19908;-37
2022/04/29 13:21:34;;;;;;;;;;;19.90;97.70;;;;;;5116286;28;19919;-36
2022/04/29 13:24:01;;;;;;;;;;;19.70;98.00;;;;;;5115858;28;20269;-38
2022/04/29 13:26:27;;;;;;;;;;;19.80;98.20;;;;;;5115812;28;20326;-37
2022/04/29 13:28:53;;;;;;;;;;;19.70;98.20;;;;;;5116260;28;20014;-37
2022/04/29 13:31:18;;;;;;;;;;;19.70;98.10;;;;;;5116377;28;19907;-37
2022/04/29 13:33:44;;;;;;;;;;;19.70;98.10;;;;;;5116756;28;19963;-37
2022/04/29 13:36:10;;;;;;;;;;;19.60;98.10;;;;;;5116130;28;19908;-37
2022/04/29 13:38:36;;;;;;;;;;;19.50;98.00;;;;;;5116109;28;19908;-36
2022/04/29 13:41:02;;;;;;;;;;;19.50;98.20;;;;;;5116242;28;20025;-36
2022/04/29 13:43:27;;;;;;;;;;;19.70;98.00;;;;;;5116190;28;19991;-37
2022/04/29 13:45:53;;;;;;;;;;;19.70;98.00;;;;;;5115958;28;19913;-36
2022/04/29 13:48:18;;;;;;;;;;;19.60;98.10;;;;;;5115833;28;19915;-37
2022/04/29 13:50:44;;;;;;;;;;;19.60;98.20;;;;;;5116205;28;19938;-36
2022/04/29 13:53:13;;;;;;;;;;;19.60;98.40;;;;;;5116113;28;20361;-37
2022/04/29 13:55:46;;;;;;;;;;;19.50;98.50;;;;;;5115387;28;20259;-36
2022/04/29 13:58:12;;;;;;;;;;;19.40;98.40;;;;;;5115578;28;19908;-36
2022/04/29 14:00:38;;;;;;;;;;;19.50;98.20;;;;;;5115949;28;19907;-37
2022/04/29 14:03:04;;;;;;;;;;;19.60;98.20;;;;;;5131697;27;20435;-37
2022/04/29 14:05:29;;;;;;;;;;;19.80;97.80;;;;;;5115636;28;19916;-36
2022/04/29 14:07:55;;;;;;;;;;;19.80;97.50;;;;;;5115476;28;19915;-37
2022/04/29 14:10:21;;;;;;;;;;;19.90;97.60;;;;;;5115050;28;19908;-36
2022/04/29 14:12:47;;;;;;;;;;;19.90;97.20;;;;;;5097434;28;20371;-36
2022/04/29 14:15:12;;;;;;;;;;;19.90;97.10;;;;;;5115936;28;20024;-36
2022/04/29 14:17:38;;;;;;;;;;;19.90;97.30;;;;;;5115786;28;19908;-36
2022/04/29 14:20:05;;;;;;;;;;;19.90;97.00;;;;;;5115105;28;20258;-36
2022/04/29 14:22:31;;;;;;;;;;;19.80;96.60;;;;;;5115263;28;19911;-36
2022/04/29 14:24:56;;;;;;;;;;;19.70;96.50;;;;;;5115752;28;19957;-37
2022/04/29 14:27:22;;;;;;;;;;;19.60;96.80;;;;;;5115348;28;20259;-36
2022/04/29 14:29:48;;;;;;;;;;;19.60;97.10;;;;;;5115235;28;19968;-36
2022/04/29 14:32:14;;;;;;;;;;;19.50;97.00;;;;;;5114929;28;20390;-36
2022/04/29 14:34:40;;;;;;;;;;;19.50;96.90;;;;;;5096493;28;19908;-36
2022/04/29 14:37:06;;;;;;;;;;;19.50;96.70;;;;;;5114740;28;19908;-36
2022/04/29 14:39:32;;;;;;;;;;;19.40;96.60;;;;;;5096641;28;19915;-37
2022/04/29 14:41:58;;;;;;;;;;;19.30;96.40;;;;;;5114630;28;19911;-37
2022/04/29 14:44:24;;;;;;;;;;;19.40;96.70;;;;;;5115189;28;19918;-36
2022/04/29 14:46:50;;;;;;;;;;;19.30;96.80;;;;;;5114534;28;19907;-37